岡山グライダークラブ活動状況掲示板あなたは無料カウンター人目の訪問者です

岡山グライダークラブ
岡山市浦安南町639-1 岡南飛行場
 使用機:シャイベ式 SF25C型 ファルケ   JA2330
      ヴァレンティン式17E型 タイフーン  JA2342
 練習日:毎日曜日  クラブルーム:電話 086-265-1810
この掲示板は岡山グライダークラブの活動状況をお知らせする掲示板です。
!!!この掲示板は投稿規制をしています。!!!
クラブ関連各種情報は 岡山グライダークラブクラブルーム      を       .
  ブリーフイング情報は  岡山グライダークラブブリーフィングルーム  をご覧下さい。 .
※写真はクリックすると拡大して見ることが出来ます。
岡南飛行場へのアクセス等は 岡南飛行場管理事務所 をご覧ください。
クラブの ホームページ ができました。

 
9月23日
by OGC at 2018/9/23(日) 20:44:57 No.20180923204028  削除コメント
1024 x 768 x 105,009バイト
No.1

09月23日
本日の参加者
  会員      14名
  その他      1名


@本日の様子




METAR
RJBK 230100Z VRB02KT 30KM FEW025CU SCT050SC BKN130AC 24/19 Q1017 A3005
RKOB 230100Z 14003KT 070V210 9999 FEW010 BKN/// 22/19 Q1018
RJOT 230100Z 07005KT 040V110 9999 FEW015 SCT140 BKN160 23/20 Q1018
RJOA 230100Z VRB01KT 9999 FEW025 BKN180 BKN/// 22/14 Q1018
TAF
RJOB 222309Z 2300/2406 12004KT 9999 FEW025
     BECMG 2302/2304 18005KT
     BECMG 2309/2311 34004KT
RJOT  222307Z 2300/2406 04007KT 9999 FEW025
     BECMG 2318/2321 28005KT
RJOA 222305Z 2300/2406 11004KT 9999 FEW035
     BECMG 2309/2311 32005KT
     BECMG 2400/2403 14005KT


本日は前線が南下し過ごしやすい気温で、風もほとんどない訓練日和でした。
岡南飛行場ではヘリや飛行機がTGLを繰り返していましたが、それを横目にタイフーンとファルケの耐空検査前の整備を行いました。
タイフーンは洗機場で洗機し色白に、ファルケは各部の測定、消耗品の取替等を行い順調に作業が進み、来週には試験飛行、再来週には通常訓練に復帰出来る見込みです。



解散    16:45

本日のフライトはありません。

    << 戻る || ホームページ || 最新の掲示板へ